createdAt,value
2019-05-05T00:00:21.693Z,4.50
2019-05-05T00:02:55.170Z,4.40
2019-05-05T00:05:32.801Z,4.50
2019-05-05T00:08:04.894Z,4.50
2019-05-05T00:10:35.681Z,4.50
2019-05-05T00:13:08.058Z,4.60
2019-05-05T00:15:45.008Z,4.60
2019-05-05T00:18:16.221Z,4.50
2019-05-05T00:20:51.075Z,4.60
2019-05-05T00:23:21.946Z,4.50
2019-05-05T00:25:52.826Z,4.50
2019-05-05T00:28:24.916Z,4.40
2019-05-05T00:30:56.595Z,4.50
2019-05-05T00:33:28.801Z,4.50
2019-05-05T00:35:58.147Z,4.40
2019-05-05T00:38:28.829Z,4.50
2019-05-05T00:40:59.812Z,4.50
2019-05-05T00:43:30.687Z,4.50
2019-05-05T00:46:02.107Z,4.50
2019-05-05T00:48:36.563Z,4.40
2019-05-05T00:51:07.606Z,4.50
2019-05-05T00:53:37.410Z,4.50
2019-05-05T00:56:09.459Z,4.50
2019-05-05T00:58:42.194Z,4.50
2019-05-05T01:01:24.925Z,4.50
2019-05-05T01:03:56.011Z,4.50
2019-05-05T01:06:28.345Z,4.50
2019-05-05T01:08:59.163Z,4.40
2019-05-05T01:11:29.469Z,4.50
2019-05-05T01:14:05.053Z,4.50
2019-05-05T01:16:36.256Z,4.50
2019-05-05T01:19:06.390Z,4.50
2019-05-05T01:21:38.051Z,4.40
2019-05-05T01:24:10.757Z,4.50
2019-05-05T01:26:40.643Z,4.50
2019-05-05T01:29:11.461Z,4.50
2019-05-05T01:31:41.362Z,4.50
2019-05-05T01:34:12.404Z,4.40
2019-05-05T01:36:45.815Z,4.40
2019-05-05T01:39:17.193Z,4.40
2019-05-05T01:41:49.758Z,4.30
2019-05-05T01:44:21.944Z,4.40
2019-05-05T01:46:51.772Z,4.40
2019-05-05T01:49:21.691Z,4.40
2019-05-05T01:51:50.884Z,4.40
2019-05-05T01:54:24.844Z,4.40
2019-05-05T01:56:57.139Z,4.40
2019-05-05T01:59:28.417Z,4.40
2019-05-05T02:01:58.529Z,4.40
2019-05-05T02:04:29.396Z,4.40
2019-05-05T02:07:00.572Z,4.50
2019-05-05T02:09:31.453Z,4.50
2019-05-05T02:12:05.237Z,4.40
2019-05-05T02:14:35.490Z,4.40
2019-05-05T02:17:06.521Z,4.40
2019-05-05T02:19:36.554Z,4.40
2019-05-05T02:22:06.903Z,4.40
2019-05-05T02:24:39.298Z,4.40
2019-05-05T02:27:10.457Z,4.30
2019-05-05T02:29:57.733Z,4.40
2019-05-05T02:32:36.338Z,4.40
2019-05-05T02:35:16.522Z,4.30
2019-05-05T02:37:48.167Z,4.30
2019-05-05T02:40:19.818Z,4.30
2019-05-05T02:42:50.956Z,4.30
2019-05-05T02:45:35.264Z,4.30
2019-05-05T02:48:06.959Z,4.40
2019-05-05T02:51:01.703Z,4.40
2019-05-05T02:53:30.996Z,4.40
2019-05-05T02:56:06.398Z,4.40
2019-05-05T02:58:40.464Z,4.40
2019-05-05T03:01:20.907Z,4.40
2019-05-05T03:03:54.247Z,4.40
2019-05-05T03:06:26.610Z,4.40
2019-05-05T03:08:58.196Z,4.40
2019-05-05T03:11:34.203Z,4.40
2019-05-05T03:14:07.469Z,4.40
2019-05-05T03:16:39.922Z,4.40
2019-05-05T03:19:14.237Z,4.40
2019-05-05T03:21:44.656Z,4.40
2019-05-05T03:24:16.993Z,4.50
2019-05-05T03:26:46.823Z,4.50
2019-05-05T03:29:18.937Z,4.60
2019-05-05T03:31:49.367Z,4.60
2019-05-05T03:34:23.981Z,4.60
2019-05-05T03:36:56.863Z,4.50
2019-05-05T03:39:29.259Z,4.50
2019-05-05T03:42:03.538Z,4.60
2019-05-05T03:44:35.495Z,4.60
2019-05-05T03:47:06.832Z,4.60
2019-05-05T03:49:37.843Z,4.60
2019-05-05T03:52:11.104Z,4.60
2019-05-05T03:54:41.177Z,4.70
2019-05-05T03:57:14.115Z,4.70
2019-05-05T03:59:48.728Z,4.60
2019-05-05T04:02:28.665Z,4.60
2019-05-05T04:05:05.840Z,4.60
2019-05-05T04:07:36.856Z,4.60
2019-05-05T04:10:09.289Z,4.60
2019-05-05T04:12:43.451Z,4.60
2019-05-05T04:15:14.219Z,4.70
2019-05-05T04:17:49.553Z,4.70
2019-05-05T04:20:21.137Z,4.70
2019-05-05T04:22:54.060Z,4.70
2019-05-05T04:25:24.706Z,4.80
2019-05-05T04:27:57.647Z,4.70
2019-05-05T04:30:29.856Z,4.80
2019-05-05T04:33:03.789Z,4.90
2019-05-05T04:35:34.781Z,4.90
2019-05-05T04:38:06.903Z,5.00
2019-05-05T04:43:29.352Z,5.10
2019-05-05T04:46:01.573Z,5.20
2019-05-05T04:48:43.960Z,5.20
2019-05-05T04:51:19.160Z,5.10
2019-05-05T04:54:09.728Z,5.20
2019-05-05T04:56:41.220Z,5.30
2019-05-05T04:59:14.281Z,5.30
2019-05-05T05:01:44.716Z,5.30
2019-05-05T05:04:33.704Z,5.30
2019-05-05T05:07:05.493Z,5.40
2019-05-05T05:09:35.454Z,5.40
2019-05-05T05:12:07.672Z,5.40
2019-05-05T05:14:37.486Z,5.50
2019-05-05T05:17:10.101Z,5.50
2019-05-05T05:19:41.058Z,5.50
2019-05-05T05:22:13.715Z,5.50
2019-05-05T05:24:44.811Z,5.50
2019-05-05T05:27:14.848Z,5.60
2019-05-05T05:29:46.215Z,5.60
2019-05-05T05:32:16.986Z,5.60
2019-05-05T05:34:47.984Z,5.60
2019-05-05T05:37:20.146Z,5.70
2019-05-05T05:40:07.375Z,5.80
2019-05-05T05:42:37.201Z,5.80
2019-05-05T05:45:20.279Z,5.90
2019-05-05T05:48:00.655Z,6.00
2019-05-05T05:50:41.257Z,6.10
2019-05-05T05:53:13.970Z,6.10
2019-05-05T05:55:48.105Z,6.10
2019-05-05T05:58:19.265Z,6.20
2019-05-05T06:00:53.945Z,6.30
2019-05-05T06:03:26.293Z,6.30
2019-05-05T06:05:56.265Z,6.30
2019-05-05T06:08:29.773Z,6.40
2019-05-05T06:10:58.514Z,6.40
2019-05-05T06:13:33.490Z,6.40
2019-05-05T06:16:05.574Z,6.40
2019-05-05T06:18:35.703Z,6.40
2019-05-05T06:21:06.298Z,6.30
2019-05-05T06:23:37.258Z,6.30
2019-05-05T06:26:14.908Z,6.30
2019-05-05T06:28:44.728Z,6.30
2019-05-05T06:31:19.716Z,6.30
2019-05-05T06:33:50.728Z,6.30
2019-05-05T06:36:20.624Z,6.40
2019-05-05T06:38:51.488Z,6.50
2019-05-05T06:41:26.262Z,6.60
2019-05-05T06:44:14.185Z,6.70
2019-05-05T06:46:45.141Z,6.70
2019-05-05T06:49:16.099Z,6.80
2019-05-05T06:51:47.401Z,6.90
2019-05-05T06:54:17.228Z,7.00
2019-05-05T06:56:47.650Z,7.10
2019-05-05T06:59:18.568Z,7.30
2019-05-05T07:01:49.508Z,7.20
2019-05-05T07:04:20.484Z,7.20
2019-05-05T07:06:54.779Z,7.20
2019-05-05T07:09:24.575Z,7.10
2019-05-05T07:11:59.500Z,7.20
2019-05-05T07:14:34.014Z,7.30
2019-05-05T07:17:05.176Z,7.10
2019-05-05T07:19:36.509Z,7.30
2019-05-05T07:22:08.618Z,7.40
2019-05-05T07:24:39.853Z,7.60
2019-05-05T07:27:10.736Z,7.70
2019-05-05T07:29:43.705Z,8.00
2019-05-05T07:32:15.705Z,8.20
2019-05-05T07:34:48.328Z,8.20
2019-05-05T07:37:19.266Z,8.30
2019-05-05T07:39:50.637Z,8.50
2019-05-05T07:42:24.293Z,8.40
2019-05-05T07:44:57.464Z,8.40
2019-05-05T07:47:31.210Z,8.30
2019-05-05T07:50:04.317Z,8.30
2019-05-05T07:52:34.484Z,8.40
2019-05-05T07:55:05.529Z,8.30
2019-05-05T07:57:34.910Z,8.40
2019-05-05T08:00:07.900Z,8.50
2019-05-05T08:02:43.878Z,8.40
2019-05-05T08:05:16.437Z,8.20
2019-05-05T08:07:47.518Z,8.10
2019-05-05T08:10:17.636Z,8.20
2019-05-05T08:12:50.583Z,8.10
2019-05-05T08:15:23.829Z,8.10
2019-05-05T08:18:13.903Z,8.20
2019-05-05T08:20:44.985Z,8.10
2019-05-05T08:23:29.017Z,8.00
2019-05-05T08:25:54.111Z,8.00
2019-05-05T08:28:28.290Z,8.10
2019-05-05T08:31:06.519Z,8.20
2019-05-05T08:33:37.808Z,8.30
2019-05-05T08:36:08.826Z,8.40
2019-05-05T08:38:39.201Z,8.40
2019-05-05T08:41:10.102Z,8.40
2019-05-05T08:43:41.027Z,8.40
2019-05-05T08:46:14.377Z,8.50
2019-05-05T08:48:47.632Z,8.60
2019-05-05T08:51:18.485Z,8.50
2019-05-05T08:53:48.612Z,8.40
2019-05-05T08:56:19.686Z,8.30
2019-05-05T08:58:54.457Z,8.40
2019-05-05T09:01:24.491Z,8.50
2019-05-05T09:03:55.720Z,8.70
2019-05-05T09:06:27.785Z,8.80
2019-05-05T09:09:00.397Z,8.80
2019-05-05T09:11:31.591Z,9.10
2019-05-05T09:14:04.173Z,9.40
2019-05-05T09:16:35.335Z,9.80
2019-05-05T09:19:11.593Z,10.10
2019-05-05T09:21:41.595Z,10.30
2019-05-05T09:24:29.002Z,10.60
2019-05-05T09:27:15.753Z,11.00
2019-05-05T09:29:47.781Z,11.10
2019-05-05T09:32:17.687Z,11.10
2019-05-05T09:34:50.275Z,11.20
2019-05-05T09:37:24.670Z,11.30
2019-05-05T09:39:54.941Z,11.10
2019-05-05T09:42:25.989Z,11.40
2019-05-05T09:44:57.478Z,12.00
2019-05-05T09:47:27.362Z,12.40
2019-05-05T09:49:59.075Z,12.30
2019-05-05T09:52:30.149Z,12.00
2019-05-05T09:55:03.822Z,11.90
2019-05-05T09:57:37.146Z,11.80
2019-05-05T10:00:09.849Z,11.90
2019-05-05T10:02:41.164Z,12.30
2019-05-05T10:05:14.259Z,12.80
2019-05-05T10:07:44.166Z,13.00
2019-05-05T10:13:04.699Z,12.90
2019-05-05T10:15:34.570Z,12.60
2019-05-05T10:18:07.753Z,12.70
2019-05-05T10:20:38.807Z,13.10
2019-05-05T10:23:10.022Z,13.00
2019-05-05T10:25:44.672Z,13.20
2019-05-05T10:28:16.881Z,13.10
2019-05-05T10:30:48.085Z,13.20
2019-05-05T10:33:19.304Z,13.10
2019-05-05T10:35:50.688Z,13.10
2019-05-05T10:38:20.697Z,13.20
2019-05-05T10:40:53.981Z,13.30
2019-05-05T10:43:26.947Z,13.10
2019-05-05T10:45:58.083Z,13.00
2019-05-05T10:48:27.872Z,12.70
2019-05-05T10:51:00.330Z,12.80
2019-05-05T10:53:32.640Z,12.90
2019-05-05T10:56:04.501Z,13.20
2019-05-05T10:58:37.939Z,13.30
2019-05-05T11:01:10.866Z,13.60
2019-05-05T11:03:44.652Z,13.50
2019-05-05T11:06:14.512Z,13.10
2019-05-05T11:08:45.736Z,12.90
2019-05-05T11:11:16.700Z,13.00
2019-05-05T11:13:48.583Z,13.10
2019-05-05T11:16:20.847Z,12.80
2019-05-05T11:18:50.804Z,12.60
2019-05-05T11:21:23.981Z,12.40
2019-05-05T11:23:55.213Z,12.20
2019-05-05T11:26:25.169Z,12.40
2019-05-05T11:28:55.005Z,12.70
2019-05-05T11:31:26.283Z,12.90
2019-05-05T11:33:58.760Z,13.10
2019-05-05T11:36:30.182Z,13.30
2019-05-05T11:39:04.047Z,13.50
2019-05-05T11:41:35.126Z,13.50
2019-05-05T11:44:04.419Z,13.30
2019-05-05T11:46:35.922Z,13.20
2019-05-05T11:49:06.405Z,13.30
2019-05-05T11:51:38.888Z,13.50
2019-05-05T11:54:08.818Z,13.20
2019-05-05T11:56:40.707Z,13.20
2019-05-05T11:59:14.397Z,13.30
2019-05-05T12:01:44.505Z,13.10
2019-05-05T12:04:15.828Z,13.10
2019-05-05T12:06:46.785Z,13.20
2019-05-05T12:09:18.393Z,13.20
2019-05-05T12:11:50.063Z,13.00
2019-05-05T12:14:24.428Z,12.70
2019-05-05T12:16:56.322Z,12.80
2019-05-05T12:19:27.409Z,12.80
2019-05-05T12:21:58.762Z,12.90
2019-05-05T12:24:33.751Z,12.90
2019-05-05T12:27:06.049Z,12.70
2019-05-05T12:29:38.322Z,12.90
2019-05-05T12:32:12.260Z,13.10
2019-05-05T12:34:42.046Z,13.10
2019-05-05T12:37:11.359Z,13.00
2019-05-05T12:39:44.245Z,13.10
2019-05-05T12:42:15.223Z,13.10
2019-05-05T12:44:49.871Z,13.30
2019-05-05T12:47:28.779Z,13.50
2019-05-05T12:50:00.279Z,13.50
2019-05-05T12:52:33.588Z,13.60
2019-05-05T12:55:06.094Z,13.70
2019-05-05T12:57:35.331Z,13.50
2019-05-05T13:00:08.834Z,13.50
2019-05-05T13:02:41.239Z,13.50
2019-05-05T13:05:14.505Z,13.30
2019-05-05T13:07:45.715Z,13.30
2019-05-05T13:10:21.745Z,13.20
2019-05-05T13:12:54.347Z,13.20
2019-05-05T13:15:27.565Z,13.10
2019-05-05T13:18:01.230Z,13.10
2019-05-05T13:20:36.099Z,13.20
2019-05-05T13:23:17.396Z,13.10
2019-05-05T13:26:09.528Z,13.10
2019-05-05T13:28:41.250Z,13.20
2019-05-05T13:31:13.976Z,13.50
2019-05-05T13:33:45.358Z,13.70
2019-05-05T13:36:17.335Z,13.80
2019-05-05T13:38:48.548Z,13.70
2019-05-05T13:41:21.811Z,13.80
2019-05-05T13:43:53.859Z,13.90
2019-05-05T13:49:25.136Z,13.70
2019-05-05T13:51:57.794Z,13.80
2019-05-05T13:54:29.362Z,13.80
2019-05-05T13:57:00.381Z,13.60
2019-05-05T13:59:34.064Z,13.50
2019-05-05T14:02:10.881Z,13.20
2019-05-05T14:04:43.825Z,13.00
2019-05-05T14:07:13.876Z,12.80
2019-05-05T14:09:45.107Z,12.70
2019-05-05T14:12:15.057Z,12.70
2019-05-05T14:14:45.023Z,12.70
2019-05-05T14:17:17.495Z,12.70
2019-05-05T14:20:01.482Z,12.60
2019-05-05T14:22:24.230Z,12.70
2019-05-05T14:24:55.895Z,12.60
2019-05-05T14:27:27.218Z,12.60
2019-05-05T14:30:08.978Z,12.30
2019-05-05T14:32:43.737Z,12.30
2019-05-05T14:35:25.149Z,12.30
2019-05-05T14:37:58.470Z,12.30
2019-05-05T14:40:29.776Z,12.40
2019-05-05T14:42:59.908Z,12.30
2019-05-05T14:45:33.882Z,12.50
2019-05-05T14:48:05.632Z,12.60
2019-05-05T14:50:36.783Z,12.50
2019-05-05T14:53:08.216Z,12.50
2019-05-05T14:55:38.241Z,12.60
2019-05-05T14:58:14.319Z,12.50
2019-05-05T15:00:45.380Z,12.50
2019-05-05T15:03:17.839Z,12.70
2019-05-05T15:06:03.881Z,12.60
2019-05-05T15:08:47.852Z,12.50
2019-05-05T15:11:23.857Z,12.60
2019-05-05T15:13:57.002Z,12.70
2019-05-05T15:16:30.133Z,12.60
2019-05-05T15:19:03.908Z,12.70
2019-05-05T15:21:36.200Z,12.70
2019-05-05T15:24:07.870Z,12.70
2019-05-05T15:26:51.192Z,12.70
2019-05-05T15:29:16.099Z,12.60
2019-05-05T15:31:46.791Z,12.50
2019-05-05T15:34:20.829Z,12.50
2019-05-05T15:39:44.106Z,12.40
2019-05-05T15:42:16.263Z,12.20
2019-05-05T15:44:51.490Z,12.20
2019-05-05T15:47:23.641Z,12.10
2019-05-05T15:52:44.109Z,12.00
2019-05-05T15:55:19.169Z,12.00
2019-05-05T15:57:50.247Z,11.90
2019-05-05T16:00:22.834Z,12.00
2019-05-05T16:02:56.177Z,12.00
2019-05-05T16:05:26.322Z,12.10
2019-05-05T16:07:58.001Z,12.10
2019-05-05T16:10:34.589Z,12.10
2019-05-05T16:13:13.696Z,12.00
2019-05-05T16:15:45.173Z,11.90
2019-05-05T16:18:36.005Z,11.80
2019-05-05T16:21:14.113Z,11.70
2019-05-05T16:23:47.409Z,11.70
2019-05-05T16:26:20.040Z,11.60
2019-05-05T16:28:55.051Z,11.50
2019-05-05T16:31:27.586Z,11.40
2019-05-05T16:33:59.545Z,11.40
2019-05-05T16:36:33.566Z,11.40
2019-05-05T16:39:02.932Z,11.30
2019-05-05T16:41:34.047Z,11.20
2019-05-05T16:44:05.997Z,11.10
2019-05-05T16:46:38.450Z,11.10
2019-05-05T16:49:15.539Z,11.10
2019-05-05T16:51:49.868Z,11.10
2019-05-05T16:54:26.752Z,11.00
2019-05-05T16:56:57.641Z,10.90
2019-05-05T16:59:28.543Z,10.90
2019-05-05T17:01:59.692Z,10.90
2019-05-05T17:04:30.844Z,10.90
2019-05-05T17:07:03.956Z,10.80
2019-05-05T17:09:35.510Z,10.80
2019-05-05T17:12:14.147Z,10.80
2019-05-05T17:15:04.501Z,10.70
2019-05-05T17:17:49.712Z,10.70
2019-05-05T17:20:24.466Z,10.60
2019-05-05T17:22:55.582Z,10.60
2019-05-05T17:25:28.223Z,10.60
2019-05-05T17:28:00.686Z,10.50
2019-05-05T17:30:34.672Z,10.40
2019-05-05T17:33:10.714Z,10.40
2019-05-05T17:35:40.836Z,10.40
2019-05-05T17:38:13.809Z,10.40
2019-05-05T17:40:47.496Z,10.30
2019-05-05T17:43:25.150Z,10.30
2019-05-05T17:45:56.795Z,10.20
2019-05-05T17:48:32.642Z,10.20
2019-05-05T17:51:13.760Z,10.10
2019-05-05T17:53:49.312Z,10.10
2019-05-05T17:56:23.555Z,10.00
2019-05-05T17:58:54.645Z,10.00
2019-05-05T18:01:25.848Z,9.90
2019-05-05T18:03:56.755Z,9.90
2019-05-05T18:06:38.571Z,9.80
2019-05-05T18:09:13.990Z,9.80
2019-05-05T18:11:46.655Z,9.80
2019-05-05T18:14:25.352Z,9.80
2019-05-05T18:16:56.648Z,9.70
2019-05-05T18:19:27.870Z,9.70
2019-05-05T18:21:58.814Z,9.60
2019-05-05T18:24:29.707Z,9.60
2019-05-05T18:27:01.236Z,9.60
2019-05-05T18:29:34.351Z,9.50
2019-05-05T18:34:55.361Z,9.40
2019-05-05T18:37:26.407Z,9.40
2019-05-05T18:39:58.671Z,9.40
2019-05-05T18:42:27.883Z,9.40
2019-05-05T18:44:59.389Z,9.30
2019-05-05T18:47:30.447Z,9.30
2019-05-05T18:49:59.774Z,9.30
2019-05-05T18:52:30.830Z,9.20
2019-05-05T18:55:01.804Z,9.20
2019-05-05T18:57:34.126Z,9.20
2019-05-05T19:00:05.331Z,9.20
2019-05-05T19:02:54.019Z,9.20
2019-05-05T19:05:41.573Z,9.20
2019-05-05T19:08:24.484Z,9.10
2019-05-05T19:10:55.579Z,9.10
2019-05-05T19:13:26.444Z,9.00
2019-05-05T19:15:57.532Z,9.00
2019-05-05T19:18:28.565Z,9.00
2019-05-05T19:21:03.606Z,9.00
2019-05-05T19:23:35.616Z,8.90
2019-05-05T19:26:07.862Z,8.90
2019-05-05T19:28:43.897Z,8.90
2019-05-05T19:31:10.347Z,8.90
2019-05-05T19:33:41.248Z,8.80
2019-05-05T19:36:12.370Z,8.80
2019-05-05T19:38:44.178Z,8.90
2019-05-05T19:41:14.470Z,8.80
2019-05-05T19:43:56.740Z,8.80
2019-05-05T19:46:28.143Z,8.80
2019-05-05T19:49:16.961Z,8.80
2019-05-05T19:51:48.572Z,8.80
2019-05-05T19:54:18.460Z,8.80
2019-05-05T19:56:54.065Z,8.80
2019-05-05T19:59:24.612Z,8.70
2019-05-05T20:01:55.476Z,8.70
2019-05-05T20:04:26.411Z,8.70
2019-05-05T20:06:56.276Z,8.60
2019-05-05T20:09:28.611Z,8.60
2019-05-05T20:11:59.579Z,8.60
2019-05-05T20:14:29.439Z,8.60
2019-05-05T20:17:19.345Z,8.70
2019-05-05T20:19:50.398Z,8.60
2019-05-05T20:25:10.657Z,8.60
2019-05-05T20:27:41.879Z,8.60
2019-05-05T20:30:14.279Z,8.60
2019-05-05T20:32:45.763Z,8.60
2019-05-05T20:35:17.284Z,8.60
2019-05-05T20:37:54.161Z,8.60
2019-05-05T20:43:17.315Z,8.50
2019-05-05T20:45:48.434Z,8.50
2019-05-05T20:51:09.269Z,8.50
2019-05-05T20:56:30.209Z,8.50
2019-05-05T20:59:02.449Z,8.50
2019-05-05T21:01:34.110Z,8.50
2019-05-05T21:04:04.766Z,8.40
2019-05-05T21:06:35.839Z,8.40
2019-05-05T21:09:10.579Z,8.40
2019-05-05T21:11:43.788Z,8.30
2019-05-05T21:14:14.954Z,8.30
2019-05-05T21:16:45.787Z,8.20
2019-05-05T21:19:16.614Z,8.30
2019-05-05T21:21:48.236Z,8.30
2019-05-05T21:24:19.073Z,8.20
2019-05-05T21:26:56.416Z,8.20
2019-05-05T21:29:38.556Z,8.20
2019-05-05T21:32:01.110Z,8.30
2019-05-05T21:34:34.128Z,8.30
2019-05-05T21:37:05.946Z,8.20
2019-05-05T21:39:38.316Z,8.20
2019-05-05T21:42:08.366Z,8.20
2019-05-05T21:44:39.500Z,8.20
2019-05-05T21:47:14.169Z,8.20
2019-05-05T21:49:46.630Z,8.10
2019-05-05T21:52:26.886Z,8.10
2019-05-05T21:54:59.324Z,8.10
2019-05-05T21:57:45.057Z,8.10
2019-05-05T22:00:16.874Z,8.10
2019-05-05T22:02:46.761Z,8.10
2019-05-05T22:05:17.624Z,8.10
2019-05-05T22:07:49.292Z,8.10
2019-05-05T22:10:20.443Z,8.10
2019-05-05T22:12:51.620Z,8.10
2019-05-05T22:15:22.719Z,8.20
2019-05-05T22:17:55.976Z,8.20
2019-05-05T22:20:30.199Z,8.10
2019-05-05T22:23:01.173Z,8.10
2019-05-05T22:25:34.075Z,8.10
2019-05-05T22:28:05.773Z,8.10
2019-05-05T22:30:37.244Z,8.10
2019-05-05T22:33:10.411Z,8.20
2019-05-05T22:35:44.230Z,8.20
2019-05-05T22:38:15.212Z,8.10
2019-05-05T22:40:47.455Z,8.10
2019-05-05T22:43:17.409Z,8.10
2019-05-05T22:45:46.682Z,8.10
2019-05-05T22:48:17.597Z,8.10
2019-05-05T22:50:49.962Z,8.10
2019-05-05T22:53:21.032Z,8.10
2019-05-05T22:55:50.925Z,8.10
2019-05-05T22:58:24.045Z,8.10
2019-05-05T23:00:59.270Z,8.20
2019-05-05T23:03:30.605Z,8.20
2019-05-05T23:06:04.320Z,8.10
2019-05-05T23:08:35.586Z,8.10
2019-05-05T23:11:08.643Z,8.10
2019-05-05T23:13:44.366Z,8.10
2019-05-05T23:16:26.457Z,8.10
2019-05-05T23:18:57.727Z,8.20
2019-05-05T23:21:34.295Z,8.20
2019-05-05T23:24:17.591Z,8.10
2019-05-05T23:26:48.968Z,8.10
2019-05-05T23:29:21.109Z,8.10
2019-05-05T23:31:55.368Z,8.10
2019-05-05T23:34:26.534Z,8.10
2019-05-05T23:36:57.506Z,8.20
2019-05-05T23:39:27.361Z,8.10
2019-05-05T23:41:58.423Z,8.10
2019-05-05T23:44:28.220Z,8.10
2019-05-05T23:46:59.101Z,8.00
2019-05-05T23:52:19.340Z,7.90
2019-05-05T23:54:50.408Z,7.90
2019-05-05T23:57:21.626Z,7.90
2019-05-05T23:59:53.314Z,7.90
